createdAt,value
2022-11-06T00:01:27.506Z,100
2022-11-06T00:07:27.452Z,100
2022-11-06T00:13:27.440Z,100
2022-11-06T00:19:27.391Z,100
2022-11-06T00:25:27.416Z,100
2022-11-06T00:31:27.470Z,100
2022-11-06T00:37:27.430Z,100
2022-11-06T00:43:27.393Z,100
2022-11-06T00:49:27.535Z,100
2022-11-06T00:55:27.403Z,100
2022-11-06T01:01:27.597Z,100
2022-11-06T01:07:27.425Z,100
2022-11-06T01:13:27.412Z,100
2022-11-06T01:19:27.419Z,100
2022-11-06T01:25:27.449Z,100
2022-11-06T01:31:27.387Z,100
2022-11-06T01:37:27.426Z,100
2022-11-06T01:43:27.502Z,100
2022-11-06T01:49:27.422Z,100
2022-11-06T01:55:27.414Z,100
2022-11-06T02:01:27.536Z,100
2022-11-06T02:07:27.405Z,100
2022-11-06T02:13:27.410Z,100
2022-11-06T02:19:27.435Z,100
2022-11-06T02:25:27.395Z,100
2022-11-06T02:31:27.424Z,100
2022-11-06T02:37:27.435Z,100
2022-11-06T02:43:27.452Z,100
2022-11-06T02:49:27.395Z,100
2022-11-06T02:55:27.459Z,100
2022-11-06T03:01:27.542Z,100
2022-11-06T03:07:27.395Z,100
2022-11-06T03:13:27.426Z,100
2022-11-06T03:19:27.439Z,100
2022-11-06T03:25:27.406Z,100
2022-11-06T03:31:27.460Z,100
2022-11-06T03:37:27.486Z,100
2022-11-06T03:43:27.404Z,100
2022-11-06T03:49:27.409Z,100
2022-11-06T03:55:27.405Z,100
2022-11-06T04:01:27.576Z,100
2022-11-06T04:07:27.590Z,100
2022-11-06T04:13:27.406Z,100
2022-11-06T04:19:27.384Z,100
2022-11-06T04:25:27.443Z,100
2022-11-06T04:31:27.395Z,100
2022-11-06T04:37:27.402Z,100
2022-11-06T04:43:27.493Z,100
2022-11-06T04:49:27.391Z,100
2022-11-06T04:55:27.393Z,100
2022-11-06T05:01:27.586Z,100
2022-11-06T05:07:27.393Z,100
2022-11-06T05:13:27.373Z,100
2022-11-06T05:19:27.429Z,100
2022-11-06T05:25:27.403Z,100
2022-11-06T05:31:27.384Z,100
2022-11-06T05:37:27.426Z,100
2022-11-06T05:43:27.404Z,100
2022-11-06T05:49:27.385Z,100
2022-11-06T05:55:27.416Z,100
2022-11-06T06:01:27.450Z,100
2022-11-06T06:07:27.396Z,100
2022-11-06T06:13:27.649Z,100
2022-11-06T06:19:27.373Z,100
2022-11-06T06:25:27.454Z,100
2022-11-06T06:31:27.436Z,100
2022-11-06T06:37:27.376Z,100
2022-11-06T06:43:27.390Z,100
2022-11-06T06:49:27.409Z,100
2022-11-06T06:55:27.405Z,100
2022-11-06T07:01:27.525Z,100
2022-11-06T07:07:27.411Z,100
2022-11-06T07:13:29.324Z,100
2022-11-06T07:19:27.410Z,100
2022-11-06T07:25:27.520Z,100
2022-11-06T07:31:27.377Z,100
2022-11-06T07:37:27.381Z,100
2022-11-06T07:43:27.410Z,100
2022-11-06T07:49:27.378Z,100
2022-11-06T07:55:27.378Z,100
2022-11-06T08:01:27.488Z,100
2022-11-06T08:07:27.378Z,100
2022-11-06T08:13:27.389Z,100
2022-11-06T08:19:27.396Z,99.9
2022-11-06T08:25:27.380Z,82.4
2022-11-06T08:31:27.369Z,75.2
2022-11-06T08:37:27.400Z,71.9
2022-11-06T08:43:27.380Z,67.1
2022-11-06T08:49:27.383Z,70.6
2022-11-06T08:55:27.413Z,67.8
2022-11-06T09:01:27.557Z,70.1
2022-11-06T09:07:27.382Z,70.8
2022-11-06T09:13:27.429Z,69
2022-11-06T09:19:32.941Z,66.8
2022-11-06T09:25:27.373Z,63.1
2022-11-06T09:31:27.397Z,62.5
2022-11-06T09:37:27.375Z,60.7
2022-11-06T09:43:58.231Z,62.2
2022-11-06T09:49:27.411Z,63.4
2022-11-06T09:55:27.362Z,69.2
2022-11-06T10:01:27.773Z,77.6
2022-11-06T10:07:27.424Z,79.8
2022-11-06T10:13:27.378Z,72.1
2022-11-06T10:19:30.652Z,68.2
2022-11-06T10:25:27.439Z,67.9
2022-11-06T10:31:27.402Z,70.1
2022-11-06T10:37:27.368Z,70.9
2022-11-06T10:43:27.454Z,76.1
2022-11-06T10:49:27.391Z,80
2022-11-06T10:55:27.389Z,80.1
2022-11-06T11:01:27.599Z,79.4
2022-11-06T11:07:27.461Z,78.7
2022-11-06T11:13:27.393Z,81.2
2022-11-06T11:19:27.526Z,79.6
2022-11-06T11:25:27.397Z,78.8
2022-11-06T11:31:27.408Z,77.5
2022-11-06T11:37:27.410Z,77.2
2022-11-06T11:43:27.375Z,75
2022-11-06T11:49:27.387Z,73.5
2022-11-06T11:55:27.420Z,75.3
2022-11-06T12:01:27.406Z,75.1
2022-11-06T12:07:27.383Z,71.9
2022-11-06T12:13:27.405Z,70.5
2022-11-06T12:19:27.395Z,69.9
2022-11-06T12:25:27.387Z,69.7
2022-11-06T12:31:27.501Z,70.3
2022-11-06T12:37:27.496Z,70.8
2022-11-06T12:43:27.368Z,71.3
2022-11-06T12:49:27.495Z,72.1
2022-11-06T12:55:27.359Z,71.6
2022-11-06T13:01:27.545Z,72.3
2022-11-06T13:07:27.821Z,71.1
2022-11-06T13:13:27.394Z,72.2
2022-11-06T13:19:27.402Z,69.4
2022-11-06T13:25:27.406Z,72.1
2022-11-06T13:31:27.428Z,69.7
2022-11-06T13:37:27.368Z,66.8
2022-11-06T13:43:27.395Z,66
2022-11-06T13:49:27.395Z,66.7
2022-11-06T13:55:27.487Z,65.7
2022-11-06T14:01:27.600Z,65.1
2022-11-06T14:07:27.371Z,65
2022-11-06T14:13:27.391Z,65.6
2022-11-06T14:19:27.392Z,66.2
2022-11-06T14:25:27.362Z,65
2022-11-06T14:31:30.103Z,65.5
2022-11-06T14:37:30.957Z,64.2
2022-11-06T14:43:27.385Z,64.3
2022-11-06T14:49:27.361Z,64.9
2022-11-06T14:55:27.411Z,63.2
2022-11-06T15:01:27.490Z,62.5
2022-11-06T15:07:58.231Z,63.2
2022-11-06T15:13:27.424Z,64.7
2022-11-06T15:19:27.363Z,64.4
2022-11-06T15:25:27.374Z,64.2
2022-11-06T15:31:27.439Z,64.1
2022-11-06T15:37:27.387Z,64.2
2022-11-06T15:43:27.411Z,65.1
2022-11-06T15:49:27.399Z,65.4
2022-11-06T15:55:27.368Z,66.5
2022-11-06T16:01:27.540Z,66.5
2022-11-06T16:07:27.409Z,66.2
2022-11-06T16:13:27.370Z,66.8
2022-11-06T16:19:27.365Z,68.7
2022-11-06T16:25:27.404Z,68.2
2022-11-06T16:31:27.381Z,72.7
2022-11-06T16:37:27.382Z,74
2022-11-06T16:43:27.455Z,78.2
2022-11-06T16:49:27.397Z,81.6
2022-11-06T16:55:27.360Z,82.1
2022-11-06T17:01:27.600Z,82.7
2022-11-06T17:07:27.389Z,82.7
2022-11-06T17:13:27.373Z,83.2
2022-11-06T17:19:27.410Z,83.2
2022-11-06T17:25:27.475Z,83.1
2022-11-06T17:31:27.367Z,84.7
2022-11-06T17:37:27.395Z,86.7
2022-11-06T17:43:27.384Z,88.3
2022-11-06T17:49:27.362Z,89.5
2022-11-06T17:55:27.494Z,89.6
2022-11-06T18:01:27.536Z,89.1
2022-11-06T18:07:27.387Z,89.3
2022-11-06T18:13:27.397Z,89.8
2022-11-06T18:19:27.360Z,90.4
2022-11-06T18:25:27.381Z,89.8
2022-11-06T18:31:27.508Z,90.1
2022-11-06T18:37:27.377Z,90.5
2022-11-06T18:43:27.371Z,89.6
2022-11-06T18:49:27.422Z,90.2
2022-11-06T18:55:27.394Z,90
2022-11-06T19:01:27.576Z,90
2022-11-06T19:07:27.390Z,88
2022-11-06T19:13:27.383Z,88.1
2022-11-06T19:19:27.425Z,87
2022-11-06T19:25:27.403Z,85.4
2022-11-06T19:31:27.353Z,84.1
2022-11-06T19:37:27.390Z,83.8
2022-11-06T19:43:27.419Z,83.7
2022-11-06T19:49:27.385Z,84
2022-11-06T19:55:28.074Z,83.7
2022-11-06T20:01:27.563Z,83.9
2022-11-06T20:07:27.346Z,84.3
2022-11-06T20:13:27.370Z,84.5
2022-11-06T20:19:27.490Z,84.4
2022-11-06T20:25:27.388Z,86.7
2022-11-06T20:31:27.423Z,86.4
2022-11-06T20:37:27.392Z,86.9
2022-11-06T20:43:27.352Z,88.7
2022-11-06T20:49:27.372Z,89.5
2022-11-06T20:55:27.439Z,88.9
2022-11-06T21:01:27.547Z,88.8
2022-11-06T21:07:27.373Z,90.1
2022-11-06T21:13:27.572Z,89.9
2022-11-06T21:19:27.365Z,92.2
2022-11-06T21:25:27.361Z,92
2022-11-06T21:31:27.388Z,91.7
2022-11-06T21:37:27.360Z,93.1
2022-11-06T21:43:27.372Z,92.5
2022-11-06T21:49:27.364Z,94.3
2022-11-06T21:55:27.374Z,94.7
2022-11-06T22:01:27.519Z,96.2
2022-11-06T22:07:27.436Z,95.8
2022-11-06T22:13:27.358Z,96.7
2022-11-06T22:19:27.367Z,95.4
2022-11-06T22:25:27.399Z,96.6
2022-11-06T22:31:27.386Z,96.5
2022-11-06T22:37:27.342Z,96.9
2022-11-06T22:43:27.397Z,98.2
2022-11-06T22:49:27.351Z,98.2
2022-11-06T22:55:27.358Z,98.1
2022-11-06T23:01:27.553Z,98.8
2022-11-06T23:07:27.380Z,99
2022-11-06T23:13:27.363Z,100
2022-11-06T23:19:27.402Z,100
2022-11-06T23:25:27.378Z,100
2022-11-06T23:31:27.357Z,100
2022-11-06T23:37:27.381Z,100
2022-11-06T23:43:27.364Z,100
2022-11-06T23:49:27.379Z,100
2022-11-06T23:55:27.650Z,100
